Time,TemperatureF,DewpointF,PressureIn,WindDirection,WindDirectionDegrees,WindSpeedMPH,WindSpeedGustMPH,Humidity,HourlyPrecipIn,Conditions,Clouds,dailyrainin,SoftwareType,DateUTC
2013-02-27 00:00:00,63.3,59.0,29.86,NNW,338,0.0,1.5,86,0.00,,,0.12,WUHU216HW,2013-02-27 05:00:00,
2013-02-27 00:05:00,63.3,59.0,29.87,NNW,338,0.0,0.0,86,0.00,,,0.00,WUHU216HW,2013-02-27 05:05:00,
2013-02-27 00:10:00,63.1,58.8,29.87,NNW,338,0.0,0.6,86,0.00,,,0.00,WUHU216HW,2013-02-27 05:10:00,
2013-02-27 00:15:00,63.1,59.2,29.87,NNW,338,0.0,0.6,87,0.00,,,0.00,WUHU216HW,2013-02-27 05:15:00,
2013-02-27 00:20:00,62.9,59.0,29.86,NNW,338,1.5,1.5,87,0.00,,,0.00,WUHU216HW,2013-02-27 05:20:00,
2013-02-27 00:25:00,62.9,59.0,29.87,NNW,338,0.0,1.5,87,0.00,,,0.00,WUHU216HW,2013-02-27 05:25:00,
2013-02-27 00:31:00,62.9,59.0,29.87,NNW,338,0.0,0.0,87,0.00,,,0.00,WUHU216HW,2013-02-27 05:31:00,
2013-02-27 00:35:00,62.7,58.8,29.86,NNW,338,0.0,0.0,87,0.00,,,0.00,WUHU216HW,2013-02-27 05:35:00,
2013-02-27 00:40:00,62.7,58.8,29.86,NNW,338,0.0,0.0,87,0.00,,,0.00,WUHU216HW,2013-02-27 05:40:00,
2013-02-27 00:45:00,62.7,58.8,29.86,NNW,338,0.0,0.0,87,0.00,,,0.00,WUHU216HW,2013-02-27 05:45:00,
2013-02-27 00:50:00,62.9,59.0,29.86,NNW,338,0.0,0.0,87,0.00,,,0.00,WUHU216HW,2013-02-27 05:50:00,
2013-02-27 00:55:00,62.9,59.0,29.87,NNW,338,0.0,0.0,87,0.00,,,0.00,WUHU216HW,2013-02-27 05:55:00,
2013-02-27 01:01:00,62.9,59.0,29.87,NNW,338,0.0,0.0,87,0.00,,,0.00,WUHU216HW,2013-02-27 06:01:00,
2013-02-27 01:06:00,62.9,59.0,29.86,NNW,338,0.0,0.0,87,0.00,,,0.00,WUHU216HW,2013-02-27 06:06:00,
2013-02-27 01:10:00,62.7,58.8,29.86,NNW,338,0.0,0.0,87,0.00,,,0.00,WUHU216HW,2013-02-27 06:10:00,
2013-02-27 01:16:00,62.7,58.3,29.86,NNW,338,0.0,0.0,86,0.00,,,0.00,WUHU216HW,2013-02-27 06:16:00,
2013-02-27 01:21:00,62.6,58.3,29.87,NNW,338,0.0,0.0,86,0.00,,,0.00,WUHU216HW,2013-02-27 06:21:00,
2013-02-27 01:26:00,62.6,58.3,29.86,NNW,338,0.0,0.0,86,0.00,,,0.00,WUHU216HW,2013-02-27 06:26:00,
2013-02-27 01:31:00,62.4,58.1,29.86,NNW,338,0.0,0.0,86,0.00,,,0.00,WUHU216HW,2013-02-27 06:31:00,
2013-02-27 01:35:00,62.4,58.1,29.86,NNW,338,0.0,0.0,86,0.00,,,0.00,WUHU216HW,2013-02-27 06:35:00,
2013-02-27 01:40:00,62.4,58.1,29.86,NNW,338,0.0,0.0,86,0.00,,,0.00,WUHU216HW,2013-02-27 06:40:00,
2013-02-27 01:45:00,62.2,57.6,29.86,NNW,338,0.0,0.0,85,0.00,,,0.00,WUHU216HW,2013-02-27 06:45:00,
2013-02-27 01:50:00,62.2,57.6,29.87,NNW,338,0.0,0.0,85,0.00,,,0.00,WUHU216HW,2013-02-27 06:50:00,
2013-02-27 01:55:00,61.8,57.3,29.87,NNW,338,0.0,0.0,85,0.00,,,0.00,WUHU216HW,2013-02-27 06:55:00,
2013-02-27 02:00:00,61.8,57.3,29.87,NNW,338,0.0,0.0,85,0.00,,,0.00,WUHU216HW,2013-02-27 07:00:00,
2013-02-27 02:05:00,61.7,56.8,29.87,NNW,338,0.0,0.0,84,0.00,,,0.00,WUHU216HW,2013-02-27 07:05:00,
2013-02-27 02:10:00,61.7,56.8,29.86,NNW,338,0.0,0.0,84,0.00,,,0.00,WUHU216HW,2013-02-27 07:10:00,
2013-02-27 02:15:00,61.8,57.3,29.86,NNW,338,0.0,0.0,85,0.00,,,0.00,WUHU216HW,2013-02-27 07:15:00,
2013-02-27 02:20:00,61.7,57.1,29.86,NNW,338,0.0,0.0,85,0.00,,,0.00,WUHU216HW,2013-02-27 07:20:00,
2013-02-27 02:25:00,61.5,56.9,29.86,NNW,338,0.0,0.0,85,0.00,,,0.00,WUHU216HW,2013-02-27 07:25:00,
2013-02-27 02:31:00,61.5,56.6,29.86,NNW,338,0.0,0.0,84,0.00,,,0.00,WUHU216HW,2013-02-27 07:31:00,
2013-02-27 02:36:00,61.3,56.4,29.86,NNW,338,0.0,0.0,84,0.00,,,0.00,WUHU216HW,2013-02-27 07:36:00,
2013-02-27 02:41:00,61.3,56.4,29.86,NNW,338,0.0,0.0,84,0.00,,,0.00,WUHU216HW,2013-02-27 07:41:00,
2013-02-27 02:46:00,61.1,55.9,29.85,NNW,338,0.0,0.0,83,0.00,,,0.00,WUHU216HW,2013-02-27 07:46:00,
2013-02-27 02:51:00,60.9,55.8,29.85,NNW,338,0.0,0.0,83,0.00,,,0.00,WUHU216HW,2013-02-27 07:51:00,
2013-02-27 02:56:00,60.9,55.8,29.86,NNW,338,0.0,0.0,83,0.00,,,0.00,WUHU216HW,2013-02-27 07:56:00,
2013-02-27 03:01:00,60.6,55.1,29.86,NNW,338,0.0,0.0,82,0.00,,,0.00,WUHU216HW,2013-02-27 08:01:00,
2013-02-27 03:06:00,60.6,55.1,29.85,NNW,338,0.0,0.0,82,0.00,,,0.00,WUHU216HW,2013-02-27 08:06:00,
2013-02-27 03:11:00,60.4,54.9,29.85,NNW,338,0.0,0.0,82,0.00,,,0.00,WUHU216HW,2013-02-27 08:11:00,
2013-02-27 03:16:00,60.4,54.9,29.85,NNW,338,0.0,0.0,82,0.00,,,0.00,WUHU216HW,2013-02-27 08:16:00,
2013-02-27 03:21:00,60.2,55.1,29.85,NNW,338,0.0,0.0,83,0.00,,,0.00,WUHU216HW,2013-02-27 08:21:00,
2013-02-27 03:26:00,60.4,55.2,29.85,NNW,338,0.0,0.0,83,0.00,,,0.00,WUHU216HW,2013-02-27 08:26:00,
2013-02-27 03:31:00,60.4,55.6,29.85,NNW,338,0.0,0.0,84,0.00,,,0.00,WUHU216HW,2013-02-27 08:31:00,
2013-02-27 03:36:00,60.4,55.6,29.85,NNW,338,0.0,0.0,84,0.00,,,0.00,WUHU216HW,2013-02-27 08:36:00,
2013-02-27 03:41:00,60.6,56.1,29.85,NNW,338,0.0,0.0,85,0.00,,,0.00,WUHU216HW,2013-02-27 08:41:00,
2013-02-27 03:46:00,60.6,56.1,29.85,NNW,338,0.0,0.0,85,0.00,,,0.00,WUHU216HW,2013-02-27 08:46:00,
2013-02-27 03:51:00,60.6,56.1,29.85,NNW,338,0.0,0.0,85,0.00,,,0.00,WUHU216HW,2013-02-27 08:51:00,
2013-02-27 03:56:00,60.6,56.1,29.85,NNW,338,0.0,0.0,85,0.00,,,0.00,WUHU216HW,2013-02-27 08:56:00,
2013-02-27 04:01:00,60.6,56.1,29.85,NNW,338,0.0,0.0,85,0.00,,,0.00,WUHU216HW,2013-02-27 09:01:00,
2013-02-27 04:06:00,60.6,56.4,29.85,NNW,338,0.0,0.0,86,0.00,,,0.00,WUHU216HW,2013-02-27 09:06:00,
2013-02-27 04:11:00,60.9,56.7,29.85,NNW,338,0.0,0.0,86,0.00,,,0.00,WUHU216HW,2013-02-27 09:11:00,
2013-02-27 04:16:00,60.9,56.7,29.85,NNW,338,0.0,0.0,86,0.00,,,0.00,WUHU216HW,2013-02-27 09:16:00,
2013-02-27 04:21:00,61.1,57.2,29.85,NNW,338,0.0,0.0,87,0.00,,,0.00,WUHU216HW,2013-02-27 09:21:00,
2013-02-27 04:26:00,61.3,57.4,29.85,NNW,338,0.0,0.0,87,0.00,,,0.00,WUHU216HW,2013-02-27 09:26:00,
2013-02-27 04:31:00,61.3,57.4,29.85,NNW,338,0.0,0.0,87,0.00,,,0.00,WUHU216HW,2013-02-27 09:31:00,
2013-02-27 04:36:00,61.3,57.4,29.85,NNW,338,0.0,0.0,87,0.00,,,0.00,WUHU216HW,2013-02-27 09:36:00,
2013-02-27 04:41:00,61.3,57.4,29.85,NNW,338,0.0,0.0,87,0.00,,,0.00,WUHU216HW,2013-02-27 09:41:00,
2013-02-27 04:46:00,61.3,57.4,29.86,NNW,338,0.0,0.0,87,0.00,,,0.00,WUHU216HW,2013-02-27 09:46:00,
2013-02-27 04:51:00,61.3,57.4,29.86,NNW,338,0.0,0.0,87,0.00,,,0.00,WUHU216HW,2013-02-27 09:51:00,
2013-02-27 04:56:00,61.3,57.4,29.86,NNW,338,0.0,0.0,87,0.00,,,0.00,WUHU216HW,2013-02-27 09:56:00,
2013-02-27 05:01:00,61.1,57.6,29.86,NNW,338,0.0,0.0,88,0.00,,,0.00,WUHU216HW,2013-02-27 10:01:00,
2013-02-27 05:06:00,61.1,57.6,29.87,NNW,338,0.0,0.0,88,0.00,,,0.00,WUHU216HW,2013-02-27 10:06:00,
2013-02-27 05:11:00,60.9,57.4,29.87,NNW,338,0.0,0.0,88,0.00,,,0.00,WUHU216HW,2013-02-27 10:11:00,
2013-02-27 05:16:00,60.9,57.7,29.87,NNW,338,0.0,0.0,89,0.00,,,0.00,WUHU216HW,2013-02-27 10:16:00,
2013-02-27 05:21:00,60.8,57.5,29.87,NNW,338,0.0,0.0,89,0.00,,,0.00,WUHU216HW,2013-02-27 10:21:00,
2013-02-27 05:26:00,60.6,57.4,29.87,NNW,338,0.0,0.0,89,0.00,,,0.00,WUHU216HW,2013-02-27 10:26:00,
2013-02-27 05:31:00,60.6,57.4,29.87,NNW,338,0.0,0.0,89,0.00,,,0.00,WUHU216HW,2013-02-27 10:31:00,
2013-02-27 05:36:00,60.6,57.4,29.87,NNW,338,0.0,0.0,89,0.00,,,0.00,WUHU216HW,2013-02-27 10:36:00,
2013-02-27 05:41:00,60.4,57.2,29.87,NNW,338,0.0,0.0,89,0.00,,,0.00,WUHU216HW,2013-02-27 10:41:00,
2013-02-27 05:46:00,60.0,56.8,29.88,NNW,338,0.0,0.0,89,0.00,,,0.00,WUHU216HW,2013-02-27 10:46:00,
2013-02-27 05:51:00,59.9,56.6,29.88,NNW,338,0.0,0.0,89,0.00,,,0.00,WUHU216HW,2013-02-27 10:51:00,
2013-02-27 05:56:00,59.5,56.3,29.88,NNW,338,0.0,0.0,89,0.00,,,0.00,WUHU216HW,2013-02-27 10:56:00,
2013-02-27 06:01:00,59.5,56.3,29.88,NNW,338,0.0,0.0,89,0.00,,,0.00,WUHU216HW,2013-02-27 11:01:00,
2013-02-27 06:06:00,59.1,55.9,29.88,NNW,338,0.0,0.0,89,0.00,,,0.00,WUHU216HW,2013-02-27 11:06:00,
2013-02-27 06:11:00,58.8,55.2,29.88,NNW,338,0.0,0.0,88,0.00,,,0.00,WUHU216HW,2013-02-27 11:11:00,
2013-02-27 06:16:00,58.8,55.2,29.88,NNW,338,0.0,0.0,88,0.00,,,0.00,WUHU216HW,2013-02-27 11:16:00,
2013-02-27 06:21:00,58.8,55.2,29.88,NNW,338,0.0,0.0,88,0.00,,,0.00,WUHU216HW,2013-02-27 11:21:00,
2013-02-27 06:26:00,58.8,55.6,29.88,NNW,338,0.0,0.0,89,0.00,,,0.00,WUHU216HW,2013-02-27 11:26:00,
2013-02-27 06:31:00,58.8,55.6,29.88,NNW,338,0.0,0.0,89,0.00,,,0.00,WUHU216HW,2013-02-27 11:31:00,
2013-02-27 06:36:00,58.6,55.4,29.88,NNW,338,0.0,0.0,89,0.00,,,0.00,WUHU216HW,2013-02-27 11:36:00,
2013-02-27 06:41:00,58.4,54.9,29.88,NNW,338,0.0,0.0,88,0.00,,,0.00,WUHU216HW,2013-02-27 11:41:00,
2013-02-27 06:46:00,58.4,54.9,29.89,NNW,338,0.0,0.0,88,0.00,,,0.00,WUHU216HW,2013-02-27 11:46:00,
2013-02-27 06:51:00,58.2,54.7,29.89,NNW,338,0.0,0.0,88,0.00,,,0.00,WUHU216HW,2013-02-27 11:51:00,
2013-02-27 06:56:00,58.2,54.7,29.89,NNW,338,0.0,0.0,88,0.00,,,0.00,WUHU216HW,2013-02-27 11:56:00,
2013-02-27 07:01:00,58.1,54.5,29.88,NNW,338,0.0,0.0,88,0.00,,,0.00,WUHU216HW,2013-02-27 12:01:00,
2013-02-27 07:06:00,58.1,54.5,29.89,NNW,338,0.0,0.0,88,0.00,,,0.00,WUHU216HW,2013-02-27 12:06:00,
2013-02-27 07:11:00,57.9,54.5,29.89,NNW,338,0.0,0.0,88,0.00,,,0.00,WUHU216HW,2013-02-27 12:11:00,
2013-02-27 07:16:00,57.9,54.3,29.89,NNW,338,0.0,0.0,88,0.00,,,0.00,WUHU216HW,2013-02-27 12:16:00,
2013-02-27 07:21:00,57.9,54.3,29.89,NNW,338,0.0,0.0,88,0.00,,,0.00,WUHU216HW,2013-02-27 12:21:00,
2013-02-27 07:26:00,57.9,54.3,29.89,NNW,338,0.0,0.0,88,0.00,,,0.00,WUHU216HW,2013-02-27 12:26:00,
2013-02-27 07:31:00,57.9,54.7,29.89,NNW,338,0.0,0.0,89,0.00,,,0.00,WUHU216HW,2013-02-27 12:31:00,
2013-02-27 07:36:00,58.1,54.8,29.90,NNW,338,0.0,0.0,89,0.00,,,0.00,WUHU216HW,2013-02-27 12:36:00,
2013-02-27 07:41:00,58.2,55.0,29.90,NNW,338,0.0,0.0,89,0.00,,,0.00,WUHU216HW,2013-02-27 12:41:00,
2013-02-27 07:46:00,58.4,55.2,29.90,NNW,338,0.0,0.0,89,0.00,,,0.00,WUHU216HW,2013-02-27 12:46:00,
2013-02-27 07:51:00,58.8,55.6,29.90,NNW,338,0.0,0.0,89,0.00,,,0.00,WUHU216HW,2013-02-27 12:51:00,
2013-02-27 07:56:00,58.8,55.9,29.90,NNW,338,0.0,0.0,90,0.00,,,0.00,WUHU216HW,2013-02-27 12:56:00,
2013-02-27 08:01:00,59.1,56.1,29.90,NNW,338,0.0,0.0,90,0.00,,,0.00,WUHU216HW,2013-02-27 13:01:00,
2013-02-27 08:07:00,59.5,56.6,29.90,NNW,338,0.0,0.0,90,0.00,,,0.00,WUHU216HW,2013-02-27 13:07:00,
2013-02-27 08:12:00,59.9,57.0,29.91,NNW,338,0.0,0.0,90,0.00,,,0.00,WUHU216HW,2013-02-27 13:12:00,
2013-02-27 08:17:00,60.4,57.5,29.91,NNW,338,0.0,0.0,90,0.00,,,0.00,WUHU216HW,2013-02-27 13:17:00,
2013-02-27 08:22:00,60.6,58.2,29.91,NNW,338,0.0,0.0,91,0.00,,,0.00,WUHU216HW,2013-02-27 13:22:00,
2013-02-27 08:27:00,61.1,58.5,29.91,NNW,338,0.0,0.0,91,0.00,,,0.00,WUHU216HW,2013-02-27 13:27:00,
2013-02-27 08:32:00,61.5,58.9,29.91,NNW,338,0.0,0.0,91,0.00,,,0.00,WUHU216HW,2013-02-27 13:32:00,
2013-02-27 08:37:00,61.7,59.1,29.91,NNW,338,0.0,0.0,91,0.00,,,0.00,WUHU216HW,2013-02-27 13:37:00,
2013-02-27 08:42:00,61.8,59.2,29.92,NNW,338,0.0,0.0,91,0.00,,,0.00,WUHU216HW,2013-02-27 13:42:00,
2013-02-27 08:47:00,62.2,59.6,29.92,NNW,338,0.0,0.0,91,0.00,,,0.00,WUHU216HW,2013-02-27 13:47:00,
2013-02-27 08:52:00,62.6,60.0,29.93,NNW,338,0.0,0.0,91,0.00,,,0.00,WUHU216HW,2013-02-27 13:52:00,
2013-02-27 08:57:00,62.7,60.1,29.93,NNW,338,0.0,0.8,91,0.00,,,0.00,WUHU216HW,2013-02-27 13:57:00,
2013-02-27 09:02:00,63.1,60.5,29.93,NNE,23,3.3,3.3,91,0.00,,,0.00,WUHU216HW,2013-02-27 14:02:00,
2013-02-27 09:07:00,63.3,60.7,29.94,NNE,23,0.0,3.3,91,0.00,,,0.00,WUHU216HW,2013-02-27 14:07:00,
2013-02-27 09:12:00,63.6,61.0,29.93,NNE,23,0.0,0.0,91,0.00,,,0.00,WUHU216HW,2013-02-27 14:12:00,
2013-02-27 09:17:00,64.0,61.4,29.94,WNW,293,0.0,0.0,91,0.00,,,0.00,WUHU216HW,2013-02-27 14:17:00,
2013-02-27 09:22:00,64.2,61.6,29.94,NNE,23,0.0,0.0,91,0.00,,,0.00,WUHU216HW,2013-02-27 14:22:00,
2013-02-27 09:27:00,64.5,61.6,29.94,NNE,23,0.0,0.0,90,0.00,,,0.00,WUHU216HW,2013-02-27 14:27:00,
2013-02-27 09:32:00,64.7,61.8,29.94,NNE,23,0.0,0.0,90,0.00,,,0.00,WUHU216HW,2013-02-27 14:32:00,
2013-02-27 09:37:00,64.9,62.0,29.94,NNE,23,0.0,0.0,90,0.00,,,0.00,WUHU216HW,2013-02-27 14:37:00,
2013-02-27 09:42:00,65.3,62.3,29.94,WNW,293,0.0,0.0,90,0.00,,,0.00,WUHU216HW,2013-02-27 14:42:00,
2013-02-27 09:47:00,65.6,62.3,29.94,WNW,293,0.0,0.0,89,0.00,,,0.00,WUHU216HW,2013-02-27 14:47:00,
2013-02-27 09:52:00,66.0,62.6,29.94,WNW,293,2.6,4.0,89,0.00,,,0.00,WUHU216HW,2013-02-27 14:52:00,
2013-02-27 09:57:00,66.2,62.4,29.94,WNW,293,1.1,4.0,88,0.00,,,0.00,WUHU216HW,2013-02-27 14:57:00,
2013-02-27 10:02:00,66.5,62.8,29.94,North,0,0.0,4.4,88,0.00,,,0.00,WUHU216HW,2013-02-27 15:02:00,
2013-02-27 10:07:00,66.9,63.2,29.94,WNW,293,0.0,4.4,88,0.00,,,0.00,WUHU216HW,2013-02-27 15:07:00,
2013-02-27 10:12:00,67.2,63.2,29.94,WNW,293,0.8,2.0,87,0.00,,,0.00,WUHU216HW,2013-02-27 15:12:00,
2013-02-27 10:17:00,67.6,63.6,29.94,NNE,23,0.0,3.1,87,0.00,,,0.00,WUHU216HW,2013-02-27 15:17:00,
2013-02-27 10:22:00,67.8,63.4,29.94,NE,45,0.0,3.1,86,0.00,,,0.00,WUHU216HW,2013-02-27 15:22:00,
2013-02-27 10:27:00,67.8,63.4,29.94,WNW,293,0.0,0.0,86,0.00,,,0.00,WUHU216HW,2013-02-27 15:27:00,
2013-02-27 10:32:00,68.0,63.6,29.94,NNE,23,0.6,2.6,86,0.00,,,0.00,WUHU216HW,2013-02-27 15:32:00,
2013-02-27 10:37:00,68.1,63.4,29.94,WNW,293,0.0,2.6,85,0.00,,,0.00,WUHU216HW,2013-02-27 15:37:00,
2013-02-27 10:42:00,68.3,63.3,29.94,WNW,293,0.0,0.0,84,0.00,,,0.00,WUHU216HW,2013-02-27 15:42:00,
2013-02-27 10:47:00,68.5,63.8,29.94,WNW,293,0.0,0.0,85,0.00,,,0.00,WUHU216HW,2013-02-27 15:47:00,
2013-02-27 10:52:00,68.7,63.6,29.94,NNE,23,0.0,1.5,84,0.00,,,0.00,WUHU216HW,2013-02-27 15:52:00,
2013-02-27 10:57:00,68.7,63.6,29.94,NE,45,0.0,6.4,84,0.00,,,0.00,WUHU216HW,2013-02-27 15:57:00,
2013-02-27 11:02:00,69.0,63.3,29.94,NW,315,0.0,6.4,82,0.00,,,0.00,WUHU216HW,2013-02-27 16:02:00,
2013-02-27 11:07:00,69.4,64.0,29.94,NE,45,0.0,2.9,83,0.00,,,0.00,WUHU216HW,2013-02-27 16:07:00,
2013-02-27 11:12:00,69.6,64.1,29.94,WNW,293,0.0,2.9,83,0.00,,,0.00,WUHU216HW,2013-02-27 16:12:00,
2013-02-27 11:17:00,69.6,63.4,29.94,North,0,0.0,3.3,81,0.00,,,0.00,WUHU216HW,2013-02-27 16:17:00,
2013-02-27 11:22:00,69.9,63.8,29.94,North,0,0.0,3.3,81,0.00,,,0.00,WUHU216HW,2013-02-27 16:22:00,
2013-02-27 11:27:00,70.1,63.6,29.94,WNW,293,0.0,2.2,80,0.00,,,0.00,WUHU216HW,2013-02-27 16:27:00,
2013-02-27 11:32:00,70.5,64.0,29.94,North,0,0.0,2.2,80,0.00,,,0.00,WUHU216HW,2013-02-27 16:32:00,
2013-02-27 11:37:00,70.7,63.8,29.94,WNW,293,4.0,4.0,79,0.00,,,0.00,WUHU216HW,2013-02-27 16:37:00,
2013-02-27 11:42:00,70.8,64.0,29.93,SSW,203,2.0,4.0,79,0.00,,,0.00,WUHU216HW,2013-02-27 16:42:00,
2013-02-27 11:47:00,71.2,64.7,29.94,WNW,293,0.0,2.0,80,0.00,,,0.00,WUHU216HW,2013-02-27 16:47:00,
2013-02-27 11:52:00,71.4,64.1,29.93,WNW,293,0.0,1.7,78,0.00,,,0.00,WUHU216HW,2013-02-27 16:52:00,
2013-02-27 11:57:00,71.4,63.8,29.93,WNW,293,0.0,1.7,77,0.00,,,0.00,WUHU216HW,2013-02-27 16:57:00,
2013-02-27 12:02:00,71.4,64.1,29.93,WNW,293,0.6,1.3,78,0.00,,,0.00,WUHU216HW,2013-02-27 17:02:00,
2013-02-27 12:07:00,71.4,64.1,29.92,WNW,293,0.0,1.1,78,0.00,,,0.00,WUHU216HW,2013-02-27 17:07:00,
2013-02-27 12:12:00,71.6,63.6,29.92,WNW,293,0.6,3.5,76,0.00,,,0.00,WUHU216HW,2013-02-27 17:12:00,
2013-02-27 12:17:00,71.6,63.6,29.93,WNW,293,0.0,3.5,76,0.00,,,0.00,WUHU216HW,2013-02-27 17:17:00,
2013-02-27 12:22:00,71.6,63.9,29.93,WNW,293,1.7,2.2,77,0.00,,,0.00,WUHU216HW,2013-02-27 17:22:00,
2013-02-27 12:27:00,71.4,63.9,29.92,North,0,0.0,1.7,77,0.00,,,0.00,WUHU216HW,2013-02-27 17:27:00,
2013-02-27 12:32:00,71.7,64.1,29.92,WNW,293,0.0,2.9,77,0.00,,,0.00,WUHU216HW,2013-02-27 17:32:00,
2013-02-27 12:37:00,72.1,64.1,29.91,NW,315,0.6,2.9,76,0.00,,,0.00,WUHU216HW,2013-02-27 17:37:00,
2013-02-27 12:42:00,72.3,64.7,29.91,NW,315,0.0,2.0,77,0.00,,,0.00,WUHU216HW,2013-02-27 17:42:00,
2013-02-27 12:47:00,72.6,64.6,29.91,SW,225,0.0,4.2,76,0.00,,,0.00,WUHU216HW,2013-02-27 17:47:00,
2013-02-27 12:52:00,73.0,64.2,29.91,WNW,293,2.0,4.2,74,0.00,,,0.00,WUHU216HW,2013-02-27 17:52:00,
2013-02-27 12:57:00,73.2,64.4,29.91,NW,315,0.0,4.6,74,0.00,,,0.00,WUHU216HW,2013-02-27 17:57:00,
2013-02-27 13:02:00,73.4,63.8,29.91,WNW,293,1.5,5.5,72,0.00,,,0.00,WUHU216HW,2013-02-27 18:02:00,
2013-02-27 13:07:00,73.5,64.0,29.91,WNW,293,0.0,5.5,72,0.00,,,0.00,WUHU216HW,2013-02-27 18:07:00,
2013-02-27 13:12:00,73.7,64.9,29.91,North,0,0.6,4.9,74,0.04,,,0.04,WUHU216HW,2013-02-27 18:12:00,
2013-02-27 13:17:00,73.9,64.7,29.91,SSW,203,0.4,3.5,73,0.04,,,0.04,WUHU216HW,2013-02-27 18:17:00,
2013-02-27 13:22:00,74.1,65.1,29.91,SSW,203,2.4,2.4,73,0.04,,,0.04,WUHU216HW,2013-02-27 18:22:00,
2013-02-27 13:27:00,74.1,63.7,29.91,WNW,293,2.0,5.8,70,0.04,,,0.04,WUHU216HW,2013-02-27 18:27:00,
2013-02-27 13:32:00,74.1,64.1,29.91,NW,315,0.0,5.8,71,0.04,,,0.04,WUHU216HW,2013-02-27 18:32:00,
2013-02-27 13:37:00,74.1,64.9,29.91,South,180,0.0,2.9,73,0.04,,,0.04,WUHU216HW,2013-02-27 18:37:00,
2013-02-27 13:42:00,74.3,63.0,29.91,WNW,293,6.4,6.4,68,0.04,,,0.04,WUHU216HW,2013-02-27 18:42:00,
2013-02-27 13:47:00,74.1,62.8,29.91,NW,315,2.0,6.9,68,0.04,,,0.04,WUHU216HW,2013-02-27 18:47:00,
2013-02-27 13:52:00,74.1,63.7,29.91,WNW,293,0.0,6.9,70,0.04,,,0.04,WUHU216HW,2013-02-27 18:52:00,
2013-02-27 13:57:00,74.3,63.9,29.90,SW,225,2.6,5.8,70,0.04,,,0.04,WUHU216HW,2013-02-27 18:57:00,
2013-02-27 14:02:00,74.4,64.4,29.90,WNW,293,1.5,5.8,71,0.04,,,0.04,WUHU216HW,2013-02-27 19:02:00,
2013-02-27 14:07:00,74.4,64.4,29.90,NNW,338,0.0,2.9,71,0.02,,,0.04,WUHU216HW,2013-02-27 19:07:00,
2013-02-27 14:12:00,74.8,65.2,29.90,WNW,293,0.0,1.5,72,0.00,,,0.04,WUHU216HW,2013-02-27 19:12:00,
2013-02-27 14:17:00,75.0,64.5,29.89,SW,225,6.4,6.4,71,0.00,,,0.04,WUHU216HW,2013-02-27 19:17:00,
2013-02-27 14:22:00,75.0,64.1,29.89,West,270,3.1,6.4,69,0.02,,,0.06,WUHU216HW,2013-02-27 19:22:00,
2013-02-27 14:27:00,75.0,64.1,29.89,WNW,293,0.0,4.9,69,0.04,,,0.08,WUHU216HW,2013-02-27 19:27:00,
2013-02-27 14:32:00,75.0,64.1,29.89,NW,315,0.0,2.9,69,0.12,,,0.16,WUHU216HW,2013-02-27 19:32:00,
2013-02-27 14:37:00,75.3,64.9,29.88,NW,315,0.0,0.4,70,0.12,,,0.16,WUHU216HW,2013-02-27 19:37:00,
2013-02-27 14:42:00,75.7,65.3,29.88,NW,315,0.0,0.0,70,0.12,,,0.16,WUHU216HW,2013-02-27 19:42:00,
2013-02-27 14:47:00,76.1,64.3,29.88,West,270,2.9,2.9,67,0.14,,,0.18,WUHU216HW,2013-02-27 19:47:00,
2013-02-27 14:52:00,75.9,64.5,29.88,WSW,248,0.0,3.5,68,0.14,,,0.18,WUHU216HW,2013-02-27 19:52:00,
2013-02-27 14:57:00,76.2,64.9,29.88,WNW,293,0.0,3.5,68,0.14,,,0.18,WUHU216HW,2013-02-27 19:57:00,
2013-02-27 15:02:00,76.2,65.3,29.88,NNE,23,0.0,5.8,69,0.14,,,0.18,WUHU216HW,2013-02-27 20:02:00,
2013-02-27 15:07:00,76.6,65.3,29.88,WNW,293,0.0,5.8,68,0.16,,,0.20,WUHU216HW,2013-02-27 20:07:00,
2013-02-27 15:12:00,76.6,64.8,29.87,SW,225,0.0,2.6,67,0.16,,,0.20,WUHU216HW,2013-02-27 20:12:00,
2013-02-27 15:17:00,76.8,65.0,29.87,SW,225,0.0,3.3,67,0.14,,,0.20,WUHU216HW,2013-02-27 20:17:00,
2013-02-27 15:22:00,77.1,65.3,29.87,WNW,293,0.0,3.3,67,0.16,,,0.22,WUHU216HW,2013-02-27 20:22:00,
2013-02-27 15:27:00,77.5,65.0,29.87,West,270,0.0,5.1,66,0.10,,,0.24,WUHU216HW,2013-02-27 20:27:00,
2013-02-27 15:32:00,77.3,64.6,29.87,WNW,293,0.0,5.1,65,0.10,,,0.26,WUHU216HW,2013-02-27 20:32:00,
2013-02-27 15:37:00,77.1,65.3,29.87,WSW,248,0.0,3.1,67,0.10,,,0.26,WUHU216HW,2013-02-27 20:37:00,
2013-02-27 15:42:00,77.1,65.3,29.86,South,180,2.6,2.6,67,0.08,,,0.26,WUHU216HW,2013-02-27 20:42:00,
2013-02-27 15:47:00,77.1,64.3,29.87,WNW,293,2.0,4.6,65,0.08,,,0.26,WUHU216HW,2013-02-27 20:47:00,
2013-02-27 15:52:00,76.8,64.5,29.87,West,270,4.2,4.6,66,0.08,,,0.26,WUHU216HW,2013-02-27 20:52:00,
2013-02-27 15:57:00,77.0,64.3,29.87,West,270,0.0,4.2,65,0.08,,,0.26,WUHU216HW,2013-02-27 20:57:00,
2013-02-27 16:02:00,77.1,64.9,29.87,WSW,248,0.0,0.8,66,0.06,,,0.26,WUHU216HW,2013-02-27 21:02:00,
2013-02-27 16:07:00,77.5,64.8,29.87,North,0,0.0,1.3,65,0.06,,,0.26,WUHU216HW,2013-02-27 21:07:00,
2013-02-27 16:12:00,77.5,63.4,29.87,NW,315,5.1,5.1,62,0.06,,,0.26,WUHU216HW,2013-02-27 21:12:00,
2013-02-27 16:17:00,77.3,63.7,29.87,WNW,293,0.0,6.4,63,0.04,,,0.26,WUHU216HW,2013-02-27 21:17:00,
2013-02-27 16:22:00,76.8,63.2,29.87,WNW,293,1.3,6.4,63,0.04,,,0.26,WUHU216HW,2013-02-27 21:22:00,
2013-02-27 16:27:00,76.4,62.9,29.87,WNW,293,0.0,2.6,63,0.00,,,0.26,WUHU216HW,2013-02-27 21:27:00,
2013-02-27 16:32:00,76.1,62.5,29.87,WNW,293,1.3,2.6,63,0.00,,,0.26,WUHU216HW,2013-02-27 21:32:00,
2013-02-27 16:37:00,76.2,62.7,29.87,West,270,0.0,2.9,63,0.00,,,0.26,WUHU216HW,2013-02-27 21:37:00,
2013-02-27 16:42:00,77.0,63.4,29.88,NW,315,0.0,3.1,63,0.00,,,0.26,WUHU216HW,2013-02-27 21:42:00,
2013-02-27 16:47:00,77.3,62.4,29.87,WNW,293,2.0,3.1,60,0.00,,,0.26,WUHU216HW,2013-02-27 21:47:00,
2013-02-27 16:52:00,77.3,62.8,29.88,WNW,293,0.0,3.1,61,0.00,,,0.26,WUHU216HW,2013-02-27 21:52:00,
2013-02-27 16:57:00,77.1,62.2,29.88,WNW,293,0.0,1.7,60,0.00,,,0.26,WUHU216HW,2013-02-27 21:57:00,
2013-02-27 17:02:00,76.6,61.7,29.88,WNW,293,1.1,3.1,60,0.00,,,0.26,WUHU216HW,2013-02-27 22:02:00,
2013-02-27 17:07:00,75.9,61.0,29.88,WNW,293,0.0,3.1,60,0.00,,,0.26,WUHU216HW,2013-02-27 22:07:00,
2013-02-27 17:12:00,75.5,60.7,29.88,WNW,293,2.2,3.1,60,0.00,,,0.26,WUHU216HW,2013-02-27 22:12:00,
2013-02-27 17:17:00,75.3,61.0,29.88,WNW,293,0.0,2.4,61,0.00,,,0.26,WUHU216HW,2013-02-27 22:17:00,
2013-02-27 17:22:00,75.3,61.4,29.88,WNW,293,0.0,2.4,62,0.00,,,0.26,WUHU216HW,2013-02-27 22:22:00,
2013-02-27 17:27:00,75.0,61.1,29.88,WNW,293,0.0,0.0,62,0.00,,,0.26,WUHU216HW,2013-02-27 22:27:00,
2013-02-27 17:32:00,75.0,61.1,29.88,WNW,293,0.0,0.0,62,0.00,,,0.26,WUHU216HW,2013-02-27 22:32:00,
2013-02-27 17:37:00,74.8,60.9,29.89,WNW,293,0.0,0.4,62,0.00,,,0.26,WUHU216HW,2013-02-27 22:37:00,
2013-02-27 17:42:00,74.4,61.0,29.89,WNW,293,0.0,0.4,63,0.00,,,0.26,WUHU216HW,2013-02-27 22:42:00,
2013-02-27 17:47:00,74.3,60.8,29.89,WNW,293,2.6,2.6,63,0.00,,,0.26,WUHU216HW,2013-02-27 22:47:00,
2013-02-27 17:52:00,74.1,60.6,29.89,WNW,293,0.0,2.6,63,0.00,,,0.26,WUHU216HW,2013-02-27 22:52:00,
2013-02-27 17:57:00,73.9,60.5,29.89,WNW,293,0.0,0.8,63,0.00,,,0.26,WUHU216HW,2013-02-27 22:57:00,
2013-02-27 18:02:00,73.7,60.3,29.90,WNW,293,0.0,1.3,63,0.00,,,0.26,WUHU216HW,2013-02-27 23:02:00,
2013-02-27 18:07:00,73.4,59.9,29.89,WNW,293,0.0,1.3,63,0.00,,,0.26,WUHU216HW,2013-02-27 23:07:00,
2013-02-27 18:12:00,73.2,59.8,29.89,WNW,293,0.0,0.0,63,0.00,,,0.26,WUHU216HW,2013-02-27 23:12:00,
2013-02-27 18:17:00,72.6,59.3,29.89,WNW,293,0.0,1.3,63,0.00,,,0.26,WUHU216HW,2013-02-27 23:17:00,
2013-02-27 18:22:00,72.3,58.9,29.89,WNW,293,0.0,1.3,63,0.00,,,0.26,WUHU216HW,2013-02-27 23:22:00,
2013-02-27 18:27:00,72.1,58.8,29.90,WNW,293,0.0,0.0,63,0.00,,,0.26,WUHU216HW,2013-02-27 23:27:00,
2013-02-27 18:32:00,71.7,58.4,29.89,WNW,293,0.0,0.0,63,0.00,,,0.26,WUHU216HW,2013-02-27 23:32:00,
2013-02-27 18:37:00,71.4,58.1,29.89,WNW,293,0.0,0.0,63,0.00,,,0.26,WUHU216HW,2013-02-27 23:37:00,
2013-02-27 18:42:00,71.2,58.4,29.89,WNW,293,0.0,0.0,64,0.00,,,0.26,WUHU216HW,2013-02-27 23:42:00,
2013-02-27 18:47:00,70.8,58.0,29.89,WNW,293,0.0,0.0,64,0.00,,,0.26,WUHU216HW,2013-02-27 23:47:00,
2013-02-27 18:52:00,70.3,57.5,29.89,WNW,293,0.0,1.5,64,0.00,,,0.26,WUHU216HW,2013-02-27 23:52:00,
2013-02-27 18:57:00,69.8,57.4,29.90,WNW,293,0.0,1.7,65,0.00,,,0.26,WUHU216HW,2013-02-27 23:57:00,
2013-02-27 19:02:00,69.6,57.7,29.89,WNW,293,0.0,1.7,66,0.00,,,0.26,WUHU216HW,2013-02-28 00:02:00,
2013-02-27 19:07:00,69.4,57.5,29.89,WNW,293,0.0,1.7,66,0.00,,,0.26,WUHU216HW,2013-02-28 00:07:00,
2013-02-27 19:12:00,69.0,57.2,29.89,WNW,293,0.0,1.7,66,0.00,,,0.26,WUHU216HW,2013-02-28 00:12:00,
2013-02-27 19:17:00,68.9,57.0,29.90,WNW,293,0.0,0.4,66,0.00,,,0.26,WUHU216HW,2013-02-28 00:17:00,
2013-02-27 19:22:00,68.7,57.2,29.90,WNW,293,0.0,1.3,67,0.00,,,0.26,WUHU216HW,2013-02-28 00:22:00,
2013-02-27 19:27:00,68.5,57.1,29.90,WNW,293,0.0,1.7,67,0.00,,,0.26,WUHU216HW,2013-02-28 00:27:00,
2013-02-27 19:32:00,68.1,57.2,29.91,WNW,293,0.0,1.7,68,0.00,,,0.26,WUHU216HW,2013-02-28 00:32:00,
2013-02-27 19:37:00,68.0,57.0,29.91,WNW,293,0.0,0.0,68,0.00,,,0.26,WUHU216HW,2013-02-28 00:37:00,
2013-02-27 19:42:00,67.8,56.8,29.91,WNW,293,0.0,0.0,68,0.00,,,0.26,WUHU216HW,2013-02-28 00:42:00,
2013-02-27 19:47:00,67.6,57.1,29.91,WNW,293,0.0,0.0,69,0.00,,,0.26,WUHU216HW,2013-02-28 00:47:00,
2013-02-27 19:52:00,67.2,56.7,29.91,WNW,293,1.3,2.6,69,0.00,,,0.26,WUHU216HW,2013-02-28 00:52:00,
2013-02-27 19:57:00,66.9,56.4,29.91,WNW,293,0.0,2.6,69,0.00,,,0.26,WUHU216HW,2013-02-28 00:57:00,
2013-02-27 20:02:00,66.9,56.4,29.91,WNW,293,0.0,0.0,69,0.00,,,0.26,WUHU216HW,2013-02-28 01:02:00,
2013-02-27 20:07:00,66.7,56.6,29.91,WNW,293,0.0,0.0,70,0.00,,,0.26,WUHU216HW,2013-02-28 01:07:00,
2013-02-27 20:12:00,66.2,56.1,29.91,WNW,293,0.0,1.7,70,0.00,,,0.26,WUHU216HW,2013-02-28 01:12:00,
2013-02-27 20:17:00,65.8,56.1,29.92,WNW,293,0.0,1.7,71,0.00,,,0.26,WUHU216HW,2013-02-28 01:17:00,
2013-02-27 20:22:00,65.4,55.8,29.91,WNW,293,0.0,0.4,71,0.00,,,0.26,WUHU216HW,2013-02-28 01:22:00,
2013-02-27 20:27:00,65.3,55.6,29.91,WNW,293,0.0,2.6,71,0.00,,,0.26,WUHU216HW,2013-02-28 01:27:00,
2013-02-27 20:32:00,65.1,55.5,29.92,WNW,293,0.0,2.6,71,0.00,,,0.26,WUHU216HW,2013-02-28 01:32:00,
2013-02-27 20:37:00,64.9,55.3,29.92,WNW,293,0.0,1.3,71,0.00,,,0.26,WUHU216HW,2013-02-28 01:37:00,
2013-02-27 20:42:00,64.7,55.5,29.92,WNW,293,0.0,1.1,72,0.00,,,0.26,WUHU216HW,2013-02-28 01:42:00,
2013-02-27 20:47:00,64.5,55.5,29.93,WNW,293,0.0,1.1,72,0.00,,,0.26,WUHU216HW,2013-02-28 01:47:00,
2013-02-27 20:52:00,64.5,55.3,29.93,WNW,293,0.0,2.2,72,0.00,,,0.26,WUHU216HW,2013-02-28 01:52:00,
2013-02-27 20:57:00,64.5,55.3,29.93,WNW,293,0.0,2.2,72,0.00,,,0.26,WUHU216HW,2013-02-28 01:57:00,
2013-02-27 21:02:00,64.2,55.4,29.93,WNW,293,0.0,0.8,72,0.00,,,0.26,WUHU216HW,2013-02-28 02:02:00,
2013-02-27 21:07:00,64.2,55.4,29.93,WNW,293,0.0,0.0,73,0.00,,,0.26,WUHU216HW,2013-02-28 02:07:00,
2013-02-27 21:12:00,64.0,55.2,29.93,WNW,293,0.0,0.0,73,0.00,,,0.26,WUHU216HW,2013-02-28 02:12:00,
2013-02-27 21:17:00,63.8,55.0,29.93,WNW,293,0.0,0.0,73,0.00,,,0.26,WUHU216HW,2013-02-28 02:17:00,
2013-02-27 21:22:00,63.6,54.8,29.94,WNW,293,0.0,0.0,73,0.00,,,0.26,WUHU216HW,2013-02-28 02:22:00,
2013-02-27 21:27:00,63.5,54.8,29.94,WNW,293,0.0,0.0,74,0.00,,,0.26,WUHU216HW,2013-02-28 02:27:00,
2013-02-27 21:32:00,63.3,54.8,29.94,WNW,293,0.0,0.0,74,0.00,,,0.26,WUHU216HW,2013-02-28 02:32:00,
2013-02-27 21:37:00,63.3,54.8,29.94,WNW,293,0.0,0.0,74,0.00,,,0.26,WUHU216HW,2013-02-28 02:37:00,
2013-02-27 21:42:00,63.1,54.6,29.94,WNW,293,0.0,0.0,74,0.00,,,0.26,WUHU216HW,2013-02-28 02:42:00,
2013-02-27 21:47:00,63.1,54.6,29.94,WNW,293,0.0,0.0,74,0.00,,,0.26,WUHU216HW,2013-02-28 02:47:00,
2013-02-27 21:52:00,62.9,54.5,29.94,WNW,293,0.0,0.0,74,0.00,,,0.26,WUHU216HW,2013-02-28 02:52:00,
2013-02-27 21:57:00,62.7,54.6,29.94,WNW,293,0.0,0.0,75,0.00,,,0.26,WUHU216HW,2013-02-28 02:57:00,
2013-02-27 22:02:00,62.4,54.3,29.94,WNW,293,0.0,0.0,75,0.00,,,0.26,WUHU216HW,2013-02-28 03:02:00,
2013-02-27 22:07:00,62.2,54.1,29.95,WNW,293,0.0,0.0,75,0.00,,,0.26,WUHU216HW,2013-02-28 03:07:00,
2013-02-27 22:12:00,62.0,54.0,29.95,WNW,293,0.0,0.0,75,0.00,,,0.26,WUHU216HW,2013-02-28 03:12:00,
2013-02-27 22:17:00,61.8,54.2,29.94,WNW,293,0.8,0.8,76,0.00,,,0.26,WUHU216HW,2013-02-28 03:17:00,
2013-02-27 22:22:00,61.7,54.0,29.94,WNW,293,0.0,0.8,76,0.00,,,0.26,WUHU216HW,2013-02-28 03:22:00,
2013-02-27 22:27:00,61.5,53.8,29.94,WNW,293,0.0,0.6,76,0.00,,,0.26,WUHU216HW,2013-02-28 03:27:00,
2013-02-27 22:32:00,61.5,53.8,29.94,WNW,293,0.0,0.6,76,0.00,,,0.26,WUHU216HW,2013-02-28 03:32:00,
2013-02-27 22:37:00,61.5,53.8,29.94,WNW,293,0.0,0.0,76,0.00,,,0.26,WUHU216HW,2013-02-28 03:37:00,
2013-02-27 22:42:00,61.5,54.2,29.94,WNW,293,0.0,0.0,77,0.00,,,0.26,WUHU216HW,2013-02-28 03:42:00,
2013-02-27 22:47:00,61.3,54.0,29.94,WNW,293,0.0,0.0,77,0.00,,,0.26,WUHU216HW,2013-02-28 03:47:00,
2013-02-27 22:52:00,61.1,53.5,29.94,WNW,293,0.0,0.0,76,0.00,,,0.26,WUHU216HW,2013-02-28 03:52:00,
2013-02-27 22:57:00,60.9,53.7,29.94,WNW,293,0.0,0.0,77,0.00,,,0.26,WUHU216HW,2013-02-28 03:57:00,
2013-02-27 23:02:00,60.6,53.4,29.94,WNW,293,0.0,0.0,77,0.00,,,0.26,WUHU216HW,2013-02-28 04:02:00,
2013-02-27 23:07:00,60.6,53.4,29.94,WNW,293,0.0,0.0,77,0.00,,,0.26,WUHU216HW,2013-02-28 04:07:00,
2013-02-27 23:12:00,60.4,53.2,29.94,WNW,293,0.0,0.0,77,0.00,,,0.26,WUHU216HW,2013-02-28 04:12:00,
2013-02-27 23:17:00,60.4,53.6,29.94,WNW,293,0.0,0.0,78,0.00,,,0.26,WUHU216HW,2013-02-28 04:17:00,
2013-02-27 23:22:00,60.0,53.2,29.94,WNW,293,0.0,0.0,78,0.00,,,0.26,WUHU216HW,2013-02-28 04:22:00,
2013-02-27 23:27:00,60.0,53.2,29.94,WNW,293,0.0,0.0,78,0.00,,,0.26,WUHU216HW,2013-02-28 04:27:00,
2013-02-27 23:32:00,60.0,53.2,29.94,WNW,293,0.0,0.0,78,0.00,,,0.26,WUHU216HW,2013-02-28 04:32:00,
2013-02-27 23:37:00,60.0,53.2,29.95,WNW,293,0.0,0.0,78,0.00,,,0.26,WUHU216HW,2013-02-28 04:37:00,
2013-02-27 23:42:00,60.0,53.2,29.95,WNW,293,0.0,0.0,78,0.00,,,0.26,WUHU216HW,2013-02-28 04:42:00,
2013-02-27 23:47:00,59.9,53.0,29.95,WNW,293,0.0,0.0,78,0.00,,,0.26,WUHU216HW,2013-02-28 04:47:00,
2013-02-27 23:52:00,59.7,52.8,29.94,WNW,293,0.0,0.0,78,0.00,,,0.26,WUHU216HW,2013-02-28 04:52:00,
2013-02-27 23:57:00,59.5,52.7,29.94,WNW,293,0.0,0.0,78,0.00,,,0.26,WUHU216HW,2013-02-28 04:57:00,